createdAt,value
2018-03-20T00:01:52.954Z,17.15
2018-03-20T00:04:20.822Z,13.43
2018-03-20T00:06:48.690Z,16.55
2018-03-20T00:09:16.559Z,16.30
2018-03-20T00:11:44.426Z,17.75
2018-03-20T00:14:12.396Z,12.57
2018-03-20T00:16:40.261Z,13.25
2018-03-20T00:19:08.127Z,12.40
2018-03-20T00:21:35.994Z,13.93
2018-03-20T00:24:03.862Z,14.90
2018-03-20T00:26:31.731Z,14.55
2018-03-20T00:28:59.597Z,14.55
2018-03-20T00:31:27.474Z,15.15
2018-03-20T00:33:55.331Z,13.40
2018-03-20T00:36:23.202Z,11.35
2018-03-20T00:38:51.066Z,11.25
2018-03-20T00:41:18.934Z,14.68
2018-03-20T00:43:46.800Z,8.95
2018-03-20T00:46:14.669Z,11.85
2018-03-20T00:48:42.536Z,9.35
2018-03-20T00:51:10.402Z,14.38
2018-03-20T00:53:38.276Z,11.55
2018-03-20T00:56:06.145Z,11.63
2018-03-20T00:58:34.005Z,11.50
2018-03-20T01:01:01.872Z,9.15
2018-03-20T01:03:29.743Z,15.55
2018-03-20T01:05:57.611Z,11.70
2018-03-20T01:08:25.474Z,12.93
2018-03-20T01:10:53.341Z,13.15
2018-03-20T01:13:21.209Z,11.65
2018-03-20T01:15:48.926Z,11.18
2018-03-20T01:18:16.738Z,13.93
2018-03-20T01:20:44.615Z,8.98
2018-03-20T01:23:12.473Z,14.90
2018-03-20T01:25:40.341Z,9.18
2018-03-20T01:28:08.207Z,11.82
2018-03-20T01:30:36.075Z,15.18
2018-03-20T01:33:03.941Z,12.18
2018-03-20T01:35:31.813Z,12.88
2018-03-20T01:37:59.678Z,10.63
2018-03-20T01:40:27.546Z,11.07
2018-03-20T01:42:55.413Z,10.68
2018-03-20T01:45:23.211Z,11.80
2018-03-20T01:47:51.863Z,11.05
2018-03-20T01:50:19.730Z,11.57
2018-03-20T01:52:47.598Z,10.05
2018-03-20T01:55:15.472Z,12.95
2018-03-20T01:57:43.333Z,11.38
2018-03-20T02:00:11.199Z,12.45
2018-03-20T02:02:39.066Z,10.20
2018-03-20T02:05:06.934Z,7.65
2018-03-20T02:07:34.802Z,9.68
2018-03-20T02:10:02.669Z,13.30
2018-03-20T02:12:30.536Z,10.60
2018-03-20T02:14:58.403Z,10.63
2018-03-20T02:17:27.089Z,13.80
2018-03-20T02:19:54.958Z,9.52
2018-03-20T02:22:22.825Z,9.15
2018-03-20T02:24:50.692Z,10.80
2018-03-20T02:27:18.560Z,10.60
2018-03-20T02:29:46.427Z,11.70
2018-03-20T02:32:14.293Z,10.43
2018-03-20T02:34:42.162Z,10.18
2018-03-20T02:37:10.033Z,12.32
2018-03-20T02:39:37.896Z,11.40
2018-03-20T02:42:05.764Z,13.35
2018-03-20T02:44:34.450Z,8.95
2018-03-20T02:47:02.321Z,9.60
2018-03-20T02:49:30.186Z,9.82
2018-03-20T02:51:58.051Z,9.98
2018-03-20T02:54:25.923Z,12.02
2018-03-20T02:56:53.787Z,7.85
2018-03-20T02:59:21.654Z,10.98
2018-03-20T03:01:49.520Z,10.65
2018-03-20T03:04:17.387Z,10.65
2018-03-20T03:06:45.256Z,11.48
2018-03-20T03:09:13.126Z,11.50
2018-03-20T03:11:41.095Z,11.70
2018-03-20T03:14:08.959Z,9.40
2018-03-20T03:16:36.831Z,8.60
2018-03-20T03:19:04.695Z,7.95
2018-03-20T03:21:32.561Z,10.68
2018-03-20T03:24:00.430Z,13.45
2018-03-20T03:26:28.296Z,11.63
2018-03-20T03:28:56.983Z,11.95
2018-03-20T03:31:24.843Z,10.95
2018-03-20T03:33:52.717Z,15.48
2018-03-20T03:36:20.585Z,6.87
2018-03-20T03:38:49.103Z,11.27
2018-03-20T03:41:17.753Z,12.73
2018-03-20T03:43:46.439Z,12.68
2018-03-20T03:46:14.306Z,9.93
2018-03-20T03:48:42.174Z,11.25
2018-03-20T03:51:10.065Z,10.20
2018-03-20T03:53:37.908Z,11.40
2018-03-20T03:56:05.802Z,12.35
2018-03-20T03:58:33.642Z,9.68
2018-03-20T04:01:01.511Z,8.93
2018-03-20T04:03:29.378Z,9.30
2018-03-20T04:05:57.245Z,10.00
2018-03-20T04:08:25.041Z,13.43
2018-03-20T04:10:52.877Z,11.80
2018-03-20T04:13:20.744Z,16.25
2018-03-20T04:15:48.619Z,13.52
2018-03-20T04:18:16.480Z,14.68
2018-03-20T04:20:44.347Z,12.45
2018-03-20T04:23:12.213Z,12.07
2018-03-20T04:25:40.010Z,11.88
2018-03-20T04:28:08.563Z,11.90
2018-03-20T04:30:36.431Z,14.70
2018-03-20T04:33:04.298Z,10.55
2018-03-20T04:35:32.164Z,11.68
2018-03-20T04:38:00.032Z,11.45
2018-03-20T04:40:27.898Z,11.75
2018-03-20T04:42:55.767Z,15.00
2018-03-20T04:45:23.635Z,10.57
2018-03-20T04:47:51.509Z,13.65
2018-03-20T04:50:19.370Z,11.35
2018-03-20T04:52:47.243Z,13.25
2018-03-20T04:55:15.103Z,11.40
2018-03-20T04:57:42.972Z,9.25
2018-03-20T05:00:10.839Z,13.15
2018-03-20T05:02:38.706Z,11.18
2018-03-20T05:05:06.618Z,10.35
2018-03-20T05:07:35.258Z,13.55
2018-03-20T05:10:03.131Z,13.45
2018-03-20T05:12:30.993Z,11.52
2018-03-20T05:14:58.864Z,16.17
2018-03-20T05:17:26.732Z,12.68
2018-03-20T05:20:12.316Z,10.90
2018-03-20T05:22:57.893Z,11.07
2018-03-20T05:25:25.762Z,9.95
2018-03-20T05:27:53.627Z,10.55
2018-03-20T05:30:21.495Z,14.50
2018-03-20T05:32:49.365Z,13.20
2018-03-20T05:35:17.229Z,11.18
2018-03-20T05:37:45.097Z,10.45
2018-03-20T05:40:12.964Z,12.18
2018-03-20T05:42:40.831Z,11.70
2018-03-20T05:45:08.699Z,14.93
2018-03-20T05:47:42.198Z,16.12
2018-03-20T05:50:15.596Z,12.95
2018-03-20T05:52:43.462Z,14.27
2018-03-20T05:55:11.332Z,10.70
2018-03-20T05:57:39.198Z,15.23
2018-03-20T06:00:07.064Z,15.98
2018-03-20T06:02:34.932Z,17.23
2018-03-20T06:05:02.799Z,13.90
2018-03-20T06:07:30.671Z,12.30
2018-03-20T06:09:58.383Z,11.38
2018-03-20T06:12:26.195Z,12.30
2018-03-20T06:14:55.506Z,12.27
2018-03-20T06:17:23.364Z,10.55
2018-03-20T06:19:51.232Z,10.02
2018-03-20T06:22:19.098Z,11.05
2018-03-20T06:24:46.967Z,14.65
2018-03-20T06:27:14.836Z,20.70
2018-03-20T06:29:42.703Z,10.45
2018-03-20T06:32:10.569Z,15.02
2018-03-20T06:34:38.436Z,13.23
2018-03-20T06:37:06.303Z,16.40
2018-03-20T06:39:34.171Z,17.92
2018-03-20T06:42:02.041Z,13.65
2018-03-20T06:44:29.906Z,12.48
2018-03-20T06:46:57.773Z,14.25
2018-03-20T06:49:25.640Z,12.57
2018-03-20T06:51:53.506Z,14.50
2018-03-20T06:54:21.374Z,14.30
2018-03-20T06:56:49.241Z,14.27
2018-03-20T06:59:17.109Z,13.07
2018-03-20T07:01:44.976Z,12.80
2018-03-20T07:04:12.843Z,10.98
2018-03-20T07:06:40.711Z,17.35
2018-03-20T07:09:08.578Z,10.70
2018-03-20T07:11:36.446Z,13.85
2018-03-20T07:14:05.132Z,11.45
2018-03-20T07:16:33.002Z,12.55
2018-03-20T07:19:00.877Z,12.77
2018-03-20T07:21:28.734Z,12.93
2018-03-20T07:23:56.601Z,13.55
2018-03-20T07:26:24.467Z,18.05
2018-03-20T07:28:52.339Z,14.77
2018-03-20T07:31:20.203Z,11.32
2018-03-20T07:33:48.073Z,12.68
2018-03-20T07:36:15.938Z,11.88
2018-03-20T07:38:43.807Z,20.65
2018-03-20T07:41:11.672Z,9.77
2018-03-20T07:43:39.539Z,11.43
2018-03-20T07:46:07.406Z,13.25
2018-03-20T07:48:35.274Z,10.13
2018-03-20T07:51:03.141Z,11.75
2018-03-20T07:53:31.008Z,12.18
2018-03-20T07:55:58.881Z,10.23
2018-03-20T07:58:26.743Z,10.57
2018-03-20T08:00:54.611Z,8.85
2018-03-20T08:03:22.478Z,11.48
2018-03-20T08:05:50.374Z,12.68
2018-03-20T08:08:19.031Z,12.43
2018-03-20T08:10:46.899Z,9.63
2018-03-20T08:13:14.767Z,14.05
2018-03-20T08:15:42.531Z,9.90
2018-03-20T08:18:10.399Z,26.10
2018-03-20T08:20:38.266Z,13.30
2018-03-20T08:23:06.133Z,13.50
2018-03-20T08:25:34.000Z,12.80
2018-03-20T08:28:01.867Z,10.52
2018-03-20T08:30:29.736Z,16.33
2018-03-20T08:32:57.602Z,9.40
2018-03-20T08:35:25.469Z,14.20
2018-03-20T08:37:53.337Z,12.37
2018-03-20T08:40:21.204Z,9.73
2018-03-20T08:42:49.095Z,13.93
2018-03-20T08:45:17.758Z,9.07
2018-03-20T08:47:45.630Z,10.90
2018-03-20T08:50:13.492Z,21.42
2018-03-20T08:52:41.361Z,13.30
2018-03-20T08:55:09.228Z,11.48
2018-03-20T08:57:37.095Z,18.10
2018-03-20T09:00:04.961Z,10.55
2018-03-20T09:02:32.830Z,11.35
2018-03-20T09:05:00.697Z,12.52
2018-03-20T09:07:28.564Z,12.80
2018-03-20T09:09:56.433Z,8.75
2018-03-20T09:12:24.374Z,8.38
2018-03-20T09:14:52.984Z,10.23
2018-03-20T09:17:20.857Z,8.65
2018-03-20T09:19:48.719Z,12.07
2018-03-20T09:22:16.587Z,11.95
2018-03-20T09:24:44.382Z,12.32
2018-03-20T09:27:12.936Z,13.23
2018-03-20T09:29:40.803Z,12.18
2018-03-20T09:32:08.670Z,12.40
2018-03-20T09:34:36.538Z,15.93
2018-03-20T09:37:04.407Z,11.98
2018-03-20T09:39:32.272Z,15.85
2018-03-20T09:42:00.140Z,11.70
2018-03-20T09:44:28.007Z,14.90
2018-03-20T09:46:55.877Z,11.35
2018-03-20T09:49:23.742Z,9.27
2018-03-20T09:51:51.662Z,13.40
2018-03-20T09:54:20.296Z,11.98
2018-03-20T09:56:48.162Z,12.50
2018-03-20T09:59:16.058Z,13.18
2018-03-20T10:01:44.716Z,12.40
2018-03-20T10:04:12.584Z,8.98
2018-03-20T10:06:40.451Z,10.68
2018-03-20T10:09:08.248Z,9.70
2018-03-20T10:11:36.800Z,9.70
2018-03-20T10:14:04.670Z,10.82
2018-03-20T10:16:32.535Z,8.75
2018-03-20T10:19:00.402Z,9.63
2018-03-20T10:21:28.278Z,12.02
2018-03-20T10:23:56.136Z,11.80
2018-03-20T10:26:24.005Z,9.82
2018-03-20T10:28:51.871Z,12.20
2018-03-20T10:31:19.738Z,15.48
2018-03-20T10:33:47.539Z,15.85
2018-03-20T10:36:16.087Z,8.38
2018-03-20T10:38:43.956Z,11.75
2018-03-20T10:41:11.822Z,11.32
2018-03-20T10:43:39.689Z,10.88
2018-03-20T10:46:07.557Z,13.48
2018-03-20T10:48:35.425Z,9.55
2018-03-20T10:51:03.292Z,11.02
2018-03-20T10:53:31.160Z,12.37
2018-03-20T10:55:59.026Z,13.52
2018-03-20T10:58:26.894Z,9.98
2018-03-20T11:01:00.496Z,9.10
2018-03-20T11:03:28.362Z,13.88
2018-03-20T11:05:56.230Z,9.00
2018-03-20T11:08:24.097Z,13.77
2018-03-20T11:10:51.965Z,11.88
2018-03-20T11:13:19.832Z,12.52
2018-03-20T11:15:47.700Z,11.38
2018-03-20T11:18:15.567Z,10.50
2018-03-20T11:20:43.434Z,21.05
2018-03-20T11:23:11.302Z,16.10
2018-03-20T11:25:39.168Z,13.35
2018-03-20T11:28:07.036Z,13.45
2018-03-20T11:30:34.904Z,22.85
2018-03-20T11:33:02.770Z,18.98
2018-03-20T11:35:30.638Z,16.52
2018-03-20T11:37:58.504Z,18.35
2018-03-20T11:40:26.372Z,15.10
2018-03-20T11:42:54.240Z,16.30
2018-03-20T11:45:22.107Z,17.90
2018-03-20T11:47:49.974Z,16.95
2018-03-20T11:50:17.842Z,16.00
2018-03-20T11:52:45.754Z,17.70
2018-03-20T11:55:14.293Z,13.10
2018-03-20T11:57:42.160Z,15.35
2018-03-20T12:00:10.028Z,13.38
2018-03-20T12:02:37.902Z,18.48
2018-03-20T12:05:05.762Z,15.57
2018-03-20T12:07:33.630Z,18.33
2018-03-20T12:10:01.497Z,19.50
2018-03-20T12:12:29.364Z,18.35
2018-03-20T12:14:57.232Z,24.40
2018-03-20T12:17:25.099Z,20.10
2018-03-20T12:19:52.998Z,23.27
2018-03-20T12:22:21.652Z,20.55
2018-03-20T12:24:49.515Z,22.85
2018-03-20T12:27:17.387Z,18.25
2018-03-20T12:29:45.254Z,20.45
2018-03-20T12:32:13.125Z,23.00
2018-03-20T12:34:40.988Z,22.85
2018-03-20T12:37:08.856Z,22.92
2018-03-20T12:39:36.723Z,22.52
2018-03-20T12:42:04.591Z,23.58
2018-03-20T12:44:32.458Z,21.42
2018-03-20T12:47:00.326Z,24.48
2018-03-20T12:49:28.194Z,23.70
2018-03-20T12:51:56.060Z,20.25
2018-03-20T12:54:23.928Z,23.65
2018-03-20T12:56:51.796Z,21.25
2018-03-20T12:59:19.662Z,19.75
2018-03-20T13:01:47.458Z,20.83
2018-03-20T13:04:16.011Z,19.98
2018-03-20T13:06:43.879Z,15.32
2018-03-20T13:09:11.746Z,26.08
2018-03-20T13:11:39.613Z,19.23
2018-03-20T13:14:07.480Z,21.45
2018-03-20T13:16:35.360Z,16.55
2018-03-20T13:19:04.035Z,26.33
2018-03-20T13:24:05.811Z,25.98
2018-03-20T13:26:33.678Z,24.08
2018-03-20T13:29:01.545Z,25.45
2018-03-20T13:31:29.413Z,21.80
2018-03-20T13:33:57.280Z,24.35
2018-03-20T13:36:25.146Z,24.65
2018-03-20T13:38:53.014Z,24.37
2018-03-20T13:41:20.881Z,28.40
2018-03-20T13:43:48.804Z,20.65
2018-03-20T13:46:17.435Z,25.88
2018-03-20T13:48:45.302Z,29.70
2018-03-20T13:51:13.170Z,22.85
2018-03-20T13:53:40.935Z,19.90
2018-03-20T13:56:08.802Z,24.05
2018-03-20T13:58:36.670Z,22.15
2018-03-20T14:01:04.537Z,23.05
2018-03-20T14:03:32.404Z,28.58
2018-03-20T14:06:00.272Z,19.83
2018-03-20T14:08:28.138Z,23.77
2018-03-20T14:10:56.007Z,23.15
2018-03-20T14:13:23.874Z,22.92
2018-03-20T14:15:51.741Z,21.83
2018-03-20T14:18:19.607Z,20.30
2018-03-20T14:20:48.191Z,22.90
2018-03-20T14:23:16.071Z,17.92
2018-03-20T14:25:43.926Z,18.23
2018-03-20T14:28:11.793Z,22.75
2018-03-20T14:30:39.661Z,20.90
2018-03-20T14:33:07.529Z,24.10
2018-03-20T14:35:35.395Z,19.17
2018-03-20T14:38:03.263Z,17.95
2018-03-20T14:40:31.847Z,20.17
2018-03-20T14:42:59.714Z,14.87
2018-03-20T14:45:27.581Z,13.95
2018-03-20T14:47:55.449Z,16.65
2018-03-20T14:50:23.316Z,14.02
2018-03-20T14:52:51.183Z,12.30
2018-03-20T14:55:19.051Z,20.70
2018-03-20T14:57:46.919Z,17.80
2018-03-20T15:00:14.786Z,13.38
2018-03-20T15:02:42.653Z,14.63
2018-03-20T15:05:10.521Z,14.30
2018-03-20T15:07:38.387Z,14.45
2018-03-20T15:10:06.254Z,13.15
2018-03-20T15:12:34.122Z,13.50
2018-03-20T15:15:01.990Z,12.88
2018-03-20T15:17:29.858Z,13.38
2018-03-20T15:19:57.787Z,11.10
2018-03-20T15:22:26.414Z,19.55
2018-03-20T15:24:54.278Z,9.65
2018-03-20T15:27:22.145Z,9.57
2018-03-20T15:29:50.013Z,11.55
2018-03-20T15:32:17.880Z,12.68
2018-03-20T15:34:45.747Z,13.77
2018-03-20T15:37:13.616Z,9.20
2018-03-20T15:39:41.482Z,15.00
2018-03-20T15:42:09.349Z,10.45
2018-03-20T15:44:37.216Z,11.55
2018-03-20T15:47:05.084Z,9.63
2018-03-20T15:49:32.951Z,9.38
2018-03-20T15:52:00.819Z,11.18
2018-03-20T15:54:28.685Z,8.15
2018-03-20T15:56:56.553Z,8.40
2018-03-20T15:59:24.422Z,8.57
2018-03-20T16:01:52.287Z,8.45
2018-03-20T16:04:20.154Z,7.97
2018-03-20T16:06:48.023Z,9.05
2018-03-20T16:09:15.913Z,13.82
2018-03-20T16:11:44.474Z,6.68
2018-03-20T16:14:12.343Z,9.13
2018-03-20T16:16:40.209Z,9.25
2018-03-20T16:19:08.076Z,11.32
2018-03-20T16:21:35.942Z,6.07
2018-03-20T16:24:03.817Z,11.88
2018-03-20T16:26:31.679Z,9.55
2018-03-20T16:28:59.545Z,6.90
2018-03-20T16:31:27.414Z,7.62
2018-03-20T16:33:55.280Z,9.13
2018-03-20T16:36:24.068Z,6.65
2018-03-20T16:38:51.938Z,9.65
2018-03-20T16:41:19.802Z,12.77
2018-03-20T16:43:47.671Z,8.32
2018-03-20T16:46:15.539Z,11.07
2018-03-20T16:48:43.405Z,10.27
2018-03-20T16:51:11.273Z,9.18
2018-03-20T16:53:39.140Z,9.27
2018-03-20T16:56:07.008Z,10.60
2018-03-20T16:58:34.874Z,8.70
2018-03-20T17:01:02.743Z,11.85
2018-03-20T17:03:30.610Z,10.57
2018-03-20T17:05:58.477Z,12.10
2018-03-20T17:08:26.191Z,11.15
2018-03-20T17:10:54.007Z,9.05
2018-03-20T17:13:21.874Z,11.68
2018-03-20T17:15:49.741Z,10.15
2018-03-20T17:18:18.428Z,9.57
2018-03-20T17:20:46.295Z,7.65
2018-03-20T17:23:14.162Z,8.15
2018-03-20T17:25:42.030Z,8.13
2018-03-20T17:28:09.897Z,7.82
2018-03-20T17:30:37.765Z,6.20
2018-03-20T17:33:05.631Z,11.85
2018-03-20T17:35:37.390Z,7.57
2018-03-20T17:38:05.258Z,8.48
2018-03-20T17:40:33.124Z,15.43
2018-03-20T17:43:00.992Z,10.40
2018-03-20T17:45:28.859Z,12.95
2018-03-20T17:47:56.727Z,9.65
2018-03-20T17:50:24.594Z,14.93
2018-03-20T17:52:52.358Z,13.73
2018-03-20T17:55:20.226Z,16.35
2018-03-20T17:57:48.100Z,10.95
2018-03-20T18:00:15.963Z,10.15
2018-03-20T18:02:43.828Z,10.60
2018-03-20T18:05:15.472Z,10.43
2018-03-20T18:07:45.861Z,10.98
2018-03-20T18:10:18.986Z,7.87
2018-03-20T18:12:48.615Z,13.02
2018-03-20T18:15:17.402Z,11.30
2018-03-20T18:17:45.274Z,12.90
2018-03-20T18:20:13.134Z,9.63
2018-03-20T18:22:41.018Z,11.25
2018-03-20T18:25:08.869Z,10.45
2018-03-20T18:27:36.738Z,10.30
2018-03-20T18:30:04.603Z,12.70
2018-03-20T18:32:32.468Z,13.30
2018-03-20T18:35:00.337Z,20.12
2018-03-20T18:37:29.905Z,12.35
2018-03-20T18:39:57.891Z,14.90
2018-03-20T18:42:27.363Z,12.37
2018-03-20T18:44:57.798Z,11.05
2018-03-20T18:47:26.216Z,10.70
2018-03-20T18:49:55.222Z,10.50
2018-03-20T18:52:23.131Z,16.87
2018-03-20T18:54:52.884Z,13.05
2018-03-20T18:57:21.691Z,14.85
2018-03-20T18:59:49.557Z,15.93
2018-03-20T19:02:19.327Z,12.82
2018-03-20T19:04:47.136Z,16.62
2018-03-20T19:07:15.003Z,14.38
2018-03-20T19:09:42.871Z,16.30
2018-03-20T19:12:11.991Z,15.55
2018-03-20T19:14:39.760Z,16.48
2018-03-20T19:17:07.599Z,14.73
2018-03-20T19:19:35.465Z,13.77
2018-03-20T19:22:03.339Z,17.35
2018-03-20T19:24:31.201Z,20.60
2018-03-20T19:26:59.887Z,12.90
2018-03-20T19:29:27.753Z,14.90
2018-03-20T19:31:55.651Z,13.80
2018-03-20T19:34:24.310Z,13.57
2018-03-20T19:36:52.179Z,17.48
2018-03-20T19:39:20.759Z,12.60
2018-03-20T19:41:48.466Z,12.10
2018-03-20T19:44:17.108Z,14.75
2018-03-20T19:46:44.976Z,12.82
2018-03-20T19:49:12.842Z,15.20
2018-03-20T19:51:40.712Z,16.83
2018-03-20T19:54:08.577Z,20.00
2018-03-20T19:56:36.445Z,19.50
2018-03-20T19:59:04.312Z,16.17
2018-03-20T20:01:32.179Z,18.08
2018-03-20T20:04:00.048Z,19.58
2018-03-20T20:06:27.914Z,19.12
2018-03-20T20:08:55.781Z,22.33
2018-03-20T20:11:23.648Z,16.87
2018-03-20T20:13:51.516Z,16.42
2018-03-20T20:16:19.388Z,16.27
2018-03-20T20:18:47.250Z,13.10
2018-03-20T20:21:15.117Z,17.50
2018-03-20T20:23:42.986Z,20.55
2018-03-20T20:26:10.853Z,17.70
2018-03-20T20:28:38.723Z,16.10
2018-03-20T20:31:06.587Z,15.85
2018-03-20T20:33:34.455Z,20.37
2018-03-20T20:36:02.322Z,22.83
2018-03-20T20:38:30.190Z,18.33
2018-03-20T20:40:58.876Z,17.95
2018-03-20T20:43:26.743Z,15.15
2018-03-20T20:45:54.612Z,16.80
2018-03-20T20:48:22.478Z,13.75
2018-03-20T20:50:50.347Z,16.12
2018-03-20T20:53:18.214Z,20.02
2018-03-20T20:55:46.080Z,17.17
2018-03-20T20:58:13.947Z,20.20
2018-03-20T21:00:41.814Z,24.52
2018-03-20T21:03:09.685Z,17.08
2018-03-20T21:05:37.550Z,16.42
2018-03-20T21:08:05.418Z,19.45
2018-03-20T21:10:33.289Z,20.37
2018-03-20T21:13:01.152Z,15.25
2018-03-20T21:15:28.977Z,17.02
2018-03-20T21:17:56.886Z,18.37
2018-03-20T21:20:24.753Z,23.33
2018-03-20T21:22:52.620Z,21.62
2018-03-20T21:25:20.488Z,18.40
2018-03-20T21:27:48.414Z,18.05
2018-03-20T21:30:17.046Z,18.37
2018-03-20T21:32:44.912Z,16.85
2018-03-20T21:35:12.776Z,18.73
2018-03-20T21:37:40.645Z,19.02
2018-03-20T21:40:08.511Z,23.20
2018-03-20T21:42:36.379Z,28.92
2018-03-20T21:45:04.247Z,20.90
2018-03-20T21:47:32.115Z,22.23
2018-03-20T21:49:59.980Z,20.40
2018-03-20T21:52:27.848Z,23.52
2018-03-20T21:54:55.720Z,27.15
2018-03-20T21:57:24.401Z,22.62
2018-03-20T21:59:52.271Z,23.77
2018-03-20T22:02:20.188Z,31.80
2018-03-20T22:04:48.822Z,22.70
2018-03-20T22:07:16.722Z,22.83
2018-03-20T22:09:45.380Z,24.90
2018-03-20T22:12:13.244Z,25.50
2018-03-20T22:14:41.112Z,20.33
2018-03-20T22:17:08.978Z,20.60
2018-03-20T22:19:36.846Z,19.12
2018-03-20T22:22:04.713Z,19.48
2018-03-20T22:24:32.581Z,23.85
2018-03-20T22:27:00.451Z,19.00
2018-03-20T22:29:28.331Z,19.27
2018-03-20T22:31:56.903Z,20.05
2018-03-20T22:34:24.765Z,20.98
2018-03-20T22:36:52.637Z,22.52
2018-03-20T22:39:20.502Z,21.77
2018-03-20T22:41:48.368Z,21.92
2018-03-20T22:44:16.236Z,19.80
2018-03-20T22:46:44.102Z,30.15
2018-03-20T22:49:11.970Z,19.62
2018-03-20T22:51:39.837Z,26.52
2018-03-20T22:54:07.706Z,20.50
2018-03-20T22:56:35.571Z,33.30
2018-03-20T22:59:03.440Z,27.75
2018-03-20T23:01:31.307Z,31.52
2018-03-20T23:03:59.174Z,36.15
2018-03-20T23:06:27.042Z,29.48
2018-03-20T23:08:54.909Z,27.73
2018-03-20T23:11:22.778Z,19.08
2018-03-20T23:13:50.706Z,24.35
2018-03-20T23:16:19.330Z,22.48
2018-03-20T23:18:47.197Z,20.25
2018-03-20T23:21:15.065Z,24.52
2018-03-20T23:23:42.933Z,19.80
2018-03-20T23:26:10.799Z,24.95
2018-03-20T23:28:38.597Z,21.58
2018-03-20T23:31:07.153Z,21.48
2018-03-20T23:33:35.016Z,21.30
2018-03-20T23:36:02.883Z,20.42
2018-03-20T23:38:30.751Z,18.15
2018-03-20T23:40:58.618Z,16.85
2018-03-20T23:43:26.485Z,15.55
2018-03-20T23:45:54.353Z,18.40
2018-03-20T23:48:22.220Z,17.80
2018-03-20T23:51:10.259Z,18.75
2018-03-20T23:53:38.127Z,18.25
2018-03-20T23:56:05.993Z,18.73
2018-03-20T23:58:33.862Z,17.73
